sensor_id;sensor_type;location;lat;lon;timestamp;P1;durP1;ratioP1;P2;durP2;ratioP2
5710;SDS011;61291;52.524;13.422;2023-09-08T00:01:49;76.60;;;70.73;;
5710;SDS011;61291;52.524;13.422;2023-09-08T00:04:15;73.50;;;68.60;;
5710;SDS011;61291;52.524;13.422;2023-09-08T00:06:41;77.87;;;72.17;;
5710;SDS011;61291;52.524;13.422;2023-09-08T00:09:07;75.40;;;70.60;;
5710;SDS011;61291;52.524;13.422;2023-09-08T00:11:32;75.60;;;70.70;;
5710;SDS011;61291;52.524;13.422;2023-09-08T00:13:58;76.87;;;71.73;;
5710;SDS011;61291;52.524;13.422;2023-09-08T00:16:24;77.87;;;72.40;;
5710;SDS011;61291;52.524;13.422;2023-09-08T00:18:49;78.47;;;72.40;;
5710;SDS011;61291;52.524;13.422;2023-09-08T00:21:15;78.07;;;72.73;;
5710;SDS011;61291;52.524;13.422;2023-09-08T00:23:40;76.47;;;71.27;;
5710;SDS011;61291;52.524;13.422;2023-09-08T00:26:06;75.30;;;70.00;;
5710;SDS011;61291;52.524;13.422;2023-09-08T00:28:32;75.73;;;70.70;;
5710;SDS011;61291;52.524;13.422;2023-09-08T00:30:57;74.90;;;69.70;;
5710;SDS011;61291;52.524;13.422;2023-09-08T00:33:24;77.07;;;72.10;;
5710;SDS011;61291;52.524;13.422;2023-09-08T00:35:50;76.57;;;71.37;;
5710;SDS011;61291;52.524;13.422;2023-09-08T00:38:16;78.60;;;73.27;;
5710;SDS011;61291;52.524;13.422;2023-09-08T00:40:42;77.67;;;72.40;;
5710;SDS011;61291;52.524;13.422;2023-09-08T00:43:07;79.90;;;74.53;;
5710;SDS011;61291;52.524;13.422;2023-09-08T00:45:34;78.20;;;72.27;;
5710;SDS011;61291;52.524;13.422;2023-09-08T00:48:03;79.90;;;74.40;;
5710;SDS011;61291;52.524;13.422;2023-09-08T00:50:29;82.43;;;76.80;;
5710;SDS011;61291;52.524;13.422;2023-09-08T00:52:54;77.00;;;71.47;;
5710;SDS011;61291;52.524;13.422;2023-09-08T00:55:20;78.50;;;72.73;;
5710;SDS011;61291;52.524;13.422;2023-09-08T00:57:45;76.43;;;71.43;;
5710;SDS011;61291;52.524;13.422;2023-09-08T01:00:11;77.65;;;72.53;;
5710;SDS011;61291;52.524;13.422;2023-09-08T01:02:37;79.03;;;74.03;;
5710;SDS011;61291;52.524;13.422;2023-09-08T01:05:03;79.37;;;73.33;;
5710;SDS011;61291;52.524;13.422;2023-09-08T01:07:29;75.63;;;70.73;;
5710;SDS011;61291;52.524;13.422;2023-09-08T01:09:56;81.03;;;75.45;;
5710;SDS011;61291;52.524;13.422;2023-09-08T01:12:22;79.93;;;74.60;;
5710;SDS011;61291;52.524;13.422;2023-09-08T01:14:47;80.33;;;75.33;;
5710;SDS011;61291;52.524;13.422;2023-09-08T01:17:13;81.40;;;76.10;;
5710;SDS011;61291;52.524;13.422;2023-09-08T01:19:38;77.55;;;72.38;;
5710;SDS011;61291;52.524;13.422;2023-09-08T01:22:11;81.80;;;74.97;;
5710;SDS011;61291;52.524;13.422;2023-09-08T01:25:04;78.33;;;73.20;;
5710;SDS011;61291;52.524;13.422;2023-09-08T01:27:37;80.00;;;74.70;;
5710;SDS011;61291;52.524;13.422;2023-09-08T01:30:05;78.93;;;73.10;;
5710;SDS011;61291;52.524;13.422;2023-09-08T01:32:32;80.37;;;75.27;;
5710;SDS011;61291;52.524;13.422;2023-09-08T01:34:58;78.90;;;73.70;;
5710;SDS011;61291;52.524;13.422;2023-09-08T01:37:25;76.72;;;71.55;;
5710;SDS011;61291;52.524;13.422;2023-09-08T01:39:51;79.40;;;73.97;;
5710;SDS011;61291;52.524;13.422;2023-09-08T01:42:16;83.63;;;78.30;;
5710;SDS011;61291;52.524;13.422;2023-09-08T01:44:42;87.30;;;80.60;;
5710;SDS011;61291;52.524;13.422;2023-09-08T01:47:07;79.00;;;73.90;;
5710;SDS011;61291;52.524;13.422;2023-09-08T01:49:33;82.03;;;76.37;;
5710;SDS011;61291;52.524;13.422;2023-09-08T01:51:58;84.07;;;78.45;;
5710;SDS011;61291;52.524;13.422;2023-09-08T01:54:24;84.78;;;77.95;;
5710;SDS011;61291;52.524;13.422;2023-09-08T01:56:49;79.07;;;73.97;;
5710;SDS011;61291;52.524;13.422;2023-09-08T01:59:16;81.47;;;76.07;;
5710;SDS011;61291;52.524;13.422;2023-09-08T02:01:41;87.38;;;81.30;;
5710;SDS011;61291;52.524;13.422;2023-09-08T02:04:07;86.60;;;80.50;;
5710;SDS011;61291;52.524;13.422;2023-09-08T02:06:32;86.27;;;80.67;;
5710;SDS011;61291;52.524;13.422;2023-09-08T02:08:58;85.50;;;80.00;;
5710;SDS011;61291;52.524;13.422;2023-09-08T02:11:23;86.43;;;80.95;;
5710;SDS011;61291;52.524;13.422;2023-09-08T02:13:49;86.97;;;81.47;;
5710;SDS011;61291;52.524;13.422;2023-09-08T02:16:15;84.40;;;78.78;;
5710;SDS011;61291;52.524;13.422;2023-09-08T02:18:41;85.07;;;78.77;;
5710;SDS011;61291;52.524;13.422;2023-09-08T02:21:08;83.03;;;77.73;;
5710;SDS011;61291;52.524;13.422;2023-09-08T02:23:33;86.57;;;80.77;;
5710;SDS011;61291;52.524;13.422;2023-09-08T02:25:59;82.20;;;76.30;;
5710;SDS011;61291;52.524;13.422;2023-09-08T02:28:24;83.47;;;78.03;;
5710;SDS011;61291;52.524;13.422;2023-09-08T02:30:50;91.07;;;84.57;;
5710;SDS011;61291;52.524;13.422;2023-09-08T02:33:15;83.50;;;77.90;;
5710;SDS011;61291;52.524;13.422;2023-09-08T02:35:41;84.20;;;77.97;;
5710;SDS011;61291;52.524;13.422;2023-09-08T02:38:06;81.33;;;75.30;;
5710;SDS011;61291;52.524;13.422;2023-09-08T02:40:32;85.90;;;79.87;;
5710;SDS011;61291;52.524;13.422;2023-09-08T02:42:59;83.10;;;77.53;;
5710;SDS011;61291;52.524;13.422;2023-09-08T02:45:25;82.97;;;77.37;;
5710;SDS011;61291;52.524;13.422;2023-09-08T02:47:51;88.60;;;80.80;;
5710;SDS011;61291;52.524;13.422;2023-09-08T02:50:17;88.23;;;82.43;;
5710;SDS011;61291;52.524;13.422;2023-09-08T02:52:42;83.53;;;77.63;;
5710;SDS011;61291;52.524;13.422;2023-09-08T02:55:08;85.80;;;80.03;;
5710;SDS011;61291;52.524;13.422;2023-09-08T02:57:34;83.40;;;77.80;;
5710;SDS011;61291;52.524;13.422;2023-09-08T02:59:59;86.70;;;81.17;;
5710;SDS011;61291;52.524;13.422;2023-09-08T03:02:25;84.27;;;78.03;;
5710;SDS011;61291;52.524;13.422;2023-09-08T03:04:51;84.20;;;78.30;;
5710;SDS011;61291;52.524;13.422;2023-09-08T03:07:16;86.53;;;79.63;;
5710;SDS011;61291;52.524;13.422;2023-09-08T03:09:42;92.20;;;85.50;;
5710;SDS011;61291;52.524;13.422;2023-09-08T03:12:08;86.70;;;81.20;;
5710;SDS011;61291;52.524;13.422;2023-09-08T03:14:33;89.03;;;83.03;;
5710;SDS011;61291;52.524;13.422;2023-09-08T03:16:59;89.00;;;82.72;;
5710;SDS011;61291;52.524;13.422;2023-09-08T03:19:24;96.10;;;90.13;;
5710;SDS011;61291;52.524;13.422;2023-09-08T03:21:50;91.00;;;84.73;;
5710;SDS011;61291;52.524;13.422;2023-09-08T03:24:15;88.60;;;82.93;;
5710;SDS011;61291;52.524;13.422;2023-09-08T03:26:41;86.50;;;80.90;;
5710;SDS011;61291;52.524;13.422;2023-09-08T03:29:06;90.00;;;84.20;;
5710;SDS011;61291;52.524;13.422;2023-09-08T03:31:32;87.70;;;81.90;;
5710;SDS011;61291;52.524;13.422;2023-09-08T03:33:57;90.27;;;84.10;;
5710;SDS011;61291;52.524;13.422;2023-09-08T03:36:23;87.23;;;81.00;;
5710;SDS011;61291;52.524;13.422;2023-09-08T03:38:49;87.30;;;80.60;;
5710;SDS011;61291;52.524;13.422;2023-09-08T03:41:15;89.93;;;83.45;;
5710;SDS011;61291;52.524;13.422;2023-09-08T03:43:40;90.40;;;83.80;;
5710;SDS011;61291;52.524;13.422;2023-09-08T03:46:06;90.47;;;84.30;;
5710;SDS011;61291;52.524;13.422;2023-09-08T03:48:31;85.70;;;80.00;;
5710;SDS011;61291;52.524;13.422;2023-09-08T03:50:57;89.03;;;83.13;;
5710;SDS011;61291;52.524;13.422;2023-09-08T03:53:23;93.37;;;87.10;;
5710;SDS011;61291;52.524;13.422;2023-09-08T03:55:48;92.83;;;86.70;;
5710;SDS011;61291;52.524;13.422;2023-09-08T03:58:14;93.67;;;87.37;;
5710;SDS011;61291;52.524;13.422;2023-09-08T04:00:40;77.68;;;72.57;;
5710;SDS011;61291;52.524;13.422;2023-09-08T04:03:06;88.57;;;82.60;;
5710;SDS011;61291;52.524;13.422;2023-09-08T04:05:32;97.47;;;90.57;;
5710;SDS011;61291;52.524;13.422;2023-09-08T04:07:58;86.35;;;80.57;;
5710;SDS011;61291;52.524;13.422;2023-09-08T04:10:23;76.23;;;70.13;;
5710;SDS011;61291;52.524;13.422;2023-09-08T04:12:49;94.33;;;87.90;;
5710;SDS011;61291;52.524;13.422;2023-09-08T04:15:15;93.40;;;86.53;;
5710;SDS011;61291;52.524;13.422;2023-09-08T04:17:40;89.77;;;82.30;;
5710;SDS011;61291;52.524;13.422;2023-09-08T04:20:06;88.67;;;82.13;;
5710;SDS011;61291;52.524;13.422;2023-09-08T04:22:33;93.80;;;87.60;;
5710;SDS011;61291;52.524;13.422;2023-09-08T04:24:59;93.40;;;87.03;;
5710;SDS011;61291;52.524;13.422;2023-09-08T04:27:25;93.93;;;87.47;;
5710;SDS011;61291;52.524;13.422;2023-09-08T04:29:50;93.73;;;86.63;;
5710;SDS011;61291;52.524;13.422;2023-09-08T04:32:16;92.50;;;86.40;;
5710;SDS011;61291;52.524;13.422;2023-09-08T04:34:41;93.83;;;87.07;;
5710;SDS011;61291;52.524;13.422;2023-09-08T04:37:07;97.07;;;90.18;;
5710;SDS011;61291;52.524;13.422;2023-09-08T04:39:33;96.88;;;90.22;;
5710;SDS011;61291;52.524;13.422;2023-09-08T04:41:59;105.33;;;97.50;;
5710;SDS011;61291;52.524;13.422;2023-09-08T04:44:25;102.47;;;94.90;;
5710;SDS011;61291;52.524;13.422;2023-09-08T04:46:51;93.93;;;86.03;;
5710;SDS011;61291;52.524;13.422;2023-09-08T04:49:17;92.80;;;85.70;;
5710;SDS011;61291;52.524;13.422;2023-09-08T04:51:43;93.40;;;85.83;;
5710;SDS011;61291;52.524;13.422;2023-09-08T04:54:09;95.67;;;89.10;;
5710;SDS011;61291;52.524;13.422;2023-09-08T04:56:55;89.63;;;83.63;;
5710;SDS011;61291;52.524;13.422;2023-09-08T04:59:21;89.15;;;82.43;;
5710;SDS011;61291;52.524;13.422;2023-09-08T05:01:47;94.43;;;87.63;;
5710;SDS011;61291;52.524;13.422;2023-09-08T05:04:13;90.83;;;83.40;;
5710;SDS011;61291;52.524;13.422;2023-09-08T05:06:39;93.57;;;86.30;;
5710;SDS011;61291;52.524;13.422;2023-09-08T05:09:04;87.90;;;80.87;;
5710;SDS011;61291;52.524;13.422;2023-09-08T05:11:30;90.10;;;82.72;;
5710;SDS011;61291;52.524;13.422;2023-09-08T05:13:56;89.43;;;82.80;;
5710;SDS011;61291;52.524;13.422;2023-09-08T05:16:22;85.07;;;79.17;;
5710;SDS011;61291;52.524;13.422;2023-09-08T05:19:01;90.30;;;84.03;;
5710;SDS011;61291;52.524;13.422;2023-09-08T05:21:31;88.37;;;82.30;;
5710;SDS011;61291;52.524;13.422;2023-09-08T05:23:57;86.13;;;79.17;;
5710;SDS011;61291;52.524;13.422;2023-09-08T05:26:22;92.57;;;85.63;;
5710;SDS011;61291;52.524;13.422;2023-09-08T05:28:48;88.20;;;81.40;;
5710;SDS011;61291;52.524;13.422;2023-09-08T05:31:18;87.87;;;81.87;;
5710;SDS011;61291;52.524;13.422;2023-09-08T05:33:44;92.80;;;85.07;;
5710;SDS011;61291;52.524;13.422;2023-09-08T05:36:09;94.20;;;87.03;;
5710;SDS011;61291;52.524;13.422;2023-09-08T05:38:35;90.20;;;82.20;;
5710;SDS011;61291;52.524;13.422;2023-09-08T05:41:00;93.03;;;85.40;;
5710;SDS011;61291;52.524;13.422;2023-09-08T05:43:27;92.47;;;84.97;;
5710;SDS011;61291;52.524;13.422;2023-09-08T05:45:53;91.25;;;84.43;;
5710;SDS011;61291;52.524;13.422;2023-09-08T05:48:18;78.70;;;72.40;;
5710;SDS011;61291;52.524;13.422;2023-09-08T05:50:44;90.63;;;83.70;;
5710;SDS011;61291;52.524;13.422;2023-09-08T05:53:10;87.03;;;80.50;;
5710;SDS011;61291;52.524;13.422;2023-09-08T05:55:35;88.95;;;82.15;;
5710;SDS011;61291;52.524;13.422;2023-09-08T05:58:00;85.63;;;79.13;;
5710;SDS011;61291;52.524;13.422;2023-09-08T06:00:26;87.13;;;80.73;;
5710;SDS011;61291;52.524;13.422;2023-09-08T06:02:52;88.63;;;81.53;;
5710;SDS011;61291;52.524;13.422;2023-09-08T06:05:17;88.10;;;80.70;;
5710;SDS011;61291;52.524;13.422;2023-09-08T06:07:43;90.47;;;84.23;;
5710;SDS011;61291;52.524;13.422;2023-09-08T06:10:08;87.60;;;80.90;;
5710;SDS011;61291;52.524;13.422;2023-09-08T06:12:34;85.03;;;77.83;;
5710;SDS011;61291;52.524;13.422;2023-09-08T06:15:03;84.97;;;78.67;;
5710;SDS011;61291;52.524;13.422;2023-09-08T06:17:29;87.23;;;81.10;;
5710;SDS011;61291;52.524;13.422;2023-09-08T06:19:54;83.50;;;77.00;;
5710;SDS011;61291;52.524;13.422;2023-09-08T06:22:20;90.23;;;82.63;;
5710;SDS011;61291;52.524;13.422;2023-09-08T06:24:45;85.75;;;79.35;;
5710;SDS011;61291;52.524;13.422;2023-09-08T06:27:11;87.03;;;79.93;;
5710;SDS011;61291;52.524;13.422;2023-09-08T06:29:38;84.70;;;78.30;;
5710;SDS011;61291;52.524;13.422;2023-09-08T06:32:05;82.20;;;76.13;;
5710;SDS011;61291;52.524;13.422;2023-09-08T06:34:31;80.47;;;74.50;;
5710;SDS011;61291;52.524;13.422;2023-09-08T06:36:56;70.33;;;64.73;;
5710;SDS011;61291;52.524;13.422;2023-09-08T06:39:22;82.33;;;76.57;;
5710;SDS011;61291;52.524;13.422;2023-09-08T06:41:50;87.10;;;80.20;;
5710;SDS011;61291;52.524;13.422;2023-09-08T06:44:15;85.80;;;79.40;;
5710;SDS011;61291;52.524;13.422;2023-09-08T06:46:41;81.70;;;75.63;;
5710;SDS011;61291;52.524;13.422;2023-09-08T06:49:06;81.03;;;75.20;;
5710;SDS011;61291;52.524;13.422;2023-09-08T06:51:32;87.13;;;80.73;;
5710;SDS011;61291;52.524;13.422;2023-09-08T06:53:57;74.67;;;69.37;;
5710;SDS011;61291;52.524;13.422;2023-09-08T06:56:24;79.53;;;73.23;;
5710;SDS011;61291;52.524;13.422;2023-09-08T06:58:50;81.80;;;75.17;;
5710;SDS011;61291;52.524;13.422;2023-09-08T07:01:16;80.57;;;74.57;;
5710;SDS011;61291;52.524;13.422;2023-09-08T07:03:42;80.23;;;74.70;;
5710;SDS011;61291;52.524;13.422;2023-09-08T07:06:07;84.87;;;78.97;;
5710;SDS011;61291;52.524;13.422;2023-09-08T07:08:33;79.57;;;73.60;;
5710;SDS011;61291;52.524;13.422;2023-09-08T07:10:58;79.03;;;73.30;;
5710;SDS011;61291;52.524;13.422;2023-09-08T07:13:24;81.20;;;75.70;;
5710;SDS011;61291;52.524;13.422;2023-09-08T07:15:49;77.57;;;71.73;;
5710;SDS011;61291;52.524;13.422;2023-09-08T07:18:15;79.47;;;73.33;;
5710;SDS011;61291;52.524;13.422;2023-09-08T07:20:40;80.17;;;74.27;;
5710;SDS011;61291;52.524;13.422;2023-09-08T07:23:06;78.15;;;72.75;;
5710;SDS011;61291;52.524;13.422;2023-09-08T07:25:31;78.80;;;73.30;;
5710;SDS011;61291;52.524;13.422;2023-09-08T07:27:57;82.50;;;76.13;;
5710;SDS011;61291;52.524;13.422;2023-09-08T07:30:22;76.97;;;71.20;;
5710;SDS011;61291;52.524;13.422;2023-09-08T07:32:48;80.55;;;74.22;;
5710;SDS011;61291;52.524;13.422;2023-09-08T07:35:13;78.73;;;73.00;;
5710;SDS011;61291;52.524;13.422;2023-09-08T07:37:40;78.70;;;73.30;;
5710;SDS011;61291;52.524;13.422;2023-09-08T07:40:07;80.07;;;74.07;;
5710;SDS011;61291;52.524;13.422;2023-09-08T07:42:34;80.67;;;74.30;;
5710;SDS011;61291;52.524;13.422;2023-09-08T07:44:59;79.83;;;73.50;;
5710;SDS011;61291;52.524;13.422;2023-09-08T07:47:25;80.57;;;74.20;;
5710;SDS011;61291;52.524;13.422;2023-09-08T07:49:50;82.23;;;74.40;;
5710;SDS011;61291;52.524;13.422;2023-09-08T07:52:16;78.67;;;72.33;;
5710;SDS011;61291;52.524;13.422;2023-09-08T07:54:41;85.83;;;78.30;;
5710;SDS011;61291;52.524;13.422;2023-09-08T07:57:07;81.27;;;73.80;;
5710;SDS011;61291;52.524;13.422;2023-09-08T07:59:33;85.07;;;78.60;;
5710;SDS011;61291;52.524;13.422;2023-09-08T08:01:58;84.90;;;78.97;;
5710;SDS011;61291;52.524;13.422;2023-09-08T08:04:23;80.80;;;74.23;;
5710;SDS011;61291;52.524;13.422;2023-09-08T08:06:49;72.00;;;66.20;;
5710;SDS011;61291;52.524;13.422;2023-09-08T08:09:14;80.70;;;73.60;;
5710;SDS011;61291;52.524;13.422;2023-09-08T08:11:40;77.90;;;71.93;;
5710;SDS011;61291;52.524;13.422;2023-09-08T08:14:06;76.77;;;71.07;;
5710;SDS011;61291;52.524;13.422;2023-09-08T08:16:32;77.40;;;71.90;;
5710;SDS011;61291;52.524;13.422;2023-09-08T08:18:57;78.13;;;72.03;;
5710;SDS011;61291;52.524;13.422;2023-09-08T08:21:24;81.30;;;73.73;;
5710;SDS011;61291;52.524;13.422;2023-09-08T08:23:49;80.63;;;74.77;;
5710;SDS011;61291;52.524;13.422;2023-09-08T08:26:15;83.30;;;77.00;;
5710;SDS011;61291;52.524;13.422;2023-09-08T08:28:42;77.00;;;71.60;;
5710;SDS011;61291;52.524;13.422;2023-09-08T08:31:07;82.87;;;76.33;;
5710;SDS011;61291;52.524;13.422;2023-09-08T08:33:33;80.70;;;74.87;;
5710;SDS011;61291;52.524;13.422;2023-09-08T08:35:58;79.47;;;73.43;;
5710;SDS011;61291;52.524;13.422;2023-09-08T08:38:24;82.67;;;76.23;;
5710;SDS011;61291;52.524;13.422;2023-09-08T08:40:50;80.57;;;74.13;;
5710;SDS011;61291;52.524;13.422;2023-09-08T08:43:16;84.00;;;77.60;;
5710;SDS011;61291;52.524;13.422;2023-09-08T08:45:41;81.53;;;75.00;;
5710;SDS011;61291;52.524;13.422;2023-09-08T08:48:08;83.17;;;76.33;;
5710;SDS011;61291;52.524;13.422;2023-09-08T08:50:34;84.17;;;78.40;;
5710;SDS011;61291;52.524;13.422;2023-09-08T08:53:01;83.63;;;75.50;;
5710;SDS011;61291;52.524;13.422;2023-09-08T08:55:30;83.47;;;77.63;;
5710;SDS011;61291;52.524;13.422;2023-09-08T08:58:05;83.73;;;77.67;;
5710;SDS011;61291;52.524;13.422;2023-09-08T09:00:31;81.17;;;75.30;;
5710;SDS011;61291;52.524;13.422;2023-09-08T09:03:00;78.77;;;73.20;;
5710;SDS011;61291;52.524;13.422;2023-09-08T09:05:26;80.97;;;74.85;;
5710;SDS011;61291;52.524;13.422;2023-09-08T09:07:52;81.27;;;75.67;;
5710;SDS011;61291;52.524;13.422;2023-09-08T09:10:20;84.95;;;78.70;;
5710;SDS011;61291;52.524;13.422;2023-09-08T09:12:45;76.57;;;71.07;;
5710;SDS011;61291;52.524;13.422;2023-09-08T09:15:11;87.53;;;79.87;;
5710;SDS011;61291;52.524;13.422;2023-09-08T09:17:37;81.77;;;76.17;;
5710;SDS011;61291;52.524;13.422;2023-09-08T09:20:13;79.33;;;73.83;;
5710;SDS011;61291;52.524;13.422;2023-09-08T09:22:45;75.70;;;70.20;;
5710;SDS011;61291;52.524;13.422;2023-09-08T09:25:20;77.70;;;71.27;;
5710;SDS011;61291;52.524;13.422;2023-09-08T09:27:53;79.93;;;73.70;;
5710;SDS011;61291;52.524;13.422;2023-09-08T09:30:20;82.70;;;76.80;;
5710;SDS011;61291;52.524;13.422;2023-09-08T09:32:47;80.77;;;75.10;;
5710;SDS011;61291;52.524;13.422;2023-09-08T09:35:16;80.93;;;74.50;;
5710;SDS011;61291;52.524;13.422;2023-09-08T09:37:42;83.40;;;77.40;;
5710;SDS011;61291;52.524;13.422;2023-09-08T09:40:07;82.07;;;76.50;;
5710;SDS011;61291;52.524;13.422;2023-09-08T09:42:37;79.88;;;74.15;;
5710;SDS011;61291;52.524;13.422;2023-09-08T09:45:05;77.07;;;71.77;;
5710;SDS011;61291;52.524;13.422;2023-09-08T09:47:32;75.70;;;70.40;;
5710;SDS011;61291;52.524;13.422;2023-09-08T09:49:57;83.10;;;77.30;;
5710;SDS011;61291;52.524;13.422;2023-09-08T09:52:24;67.65;;;62.58;;
5710;SDS011;61291;52.524;13.422;2023-09-08T09:54:51;78.77;;;73.03;;
5710;SDS011;61291;52.524;13.422;2023-09-08T09:57:20;79.03;;;72.60;;
5710;SDS011;61291;52.524;13.422;2023-09-08T09:59:46;76.90;;;71.50;;
5710;SDS011;61291;52.524;13.422;2023-09-08T10:02:15;80.20;;;73.87;;
5710;SDS011;61291;52.524;13.422;2023-09-08T10:04:45;79.07;;;73.10;;
5710;SDS011;61291;52.524;13.422;2023-09-08T10:07:13;76.00;;;71.00;;
5710;SDS011;61291;52.524;13.422;2023-09-08T10:09:40;78.33;;;72.80;;
5710;SDS011;61291;52.524;13.422;2023-09-08T10:12:06;72.77;;;67.23;;
5710;SDS011;61291;52.524;13.422;2023-09-08T10:14:35;74.40;;;69.03;;
5710;SDS011;61291;52.524;13.422;2023-09-08T10:17:03;75.03;;;69.50;;
5710;SDS011;61291;52.524;13.422;2023-09-08T10:19:36;75.90;;;70.40;;
5710;SDS011;61291;52.524;13.422;2023-09-08T10:22:06;75.83;;;70.43;;
5710;SDS011;61291;52.524;13.422;2023-09-08T10:24:36;70.72;;;65.32;;
5710;SDS011;61291;52.524;13.422;2023-09-08T10:27:07;78.50;;;72.70;;
5710;SDS011;61291;52.524;13.422;2023-09-08T10:29:37;81.13;;;75.20;;
5710;SDS011;61291;52.524;13.422;2023-09-08T10:32:04;78.23;;;72.40;;
5710;SDS011;61291;52.524;13.422;2023-09-08T10:34:31;79.88;;;72.65;;
5710;SDS011;61291;52.524;13.422;2023-09-08T10:36:58;79.67;;;74.17;;
5710;SDS011;61291;52.524;13.422;2023-09-08T10:47:12;83.17;;;77.00;;
5710;SDS011;61291;52.524;13.422;2023-09-08T10:49:38;85.20;;;79.23;;
5710;SDS011;61291;52.524;13.422;2023-09-08T10:52:08;85.73;;;79.53;;
5710;SDS011;61291;52.524;13.422;2023-09-08T10:54:42;82.57;;;76.43;;
5710;SDS011;61291;52.524;13.422;2023-09-08T10:57:15;82.53;;;76.03;;
5710;SDS011;61291;52.524;13.422;2023-09-08T10:59:48;82.70;;;77.20;;
5710;SDS011;61291;52.524;13.422;2023-09-08T11:02:33;82.43;;;76.18;;
5710;SDS011;61291;52.524;13.422;2023-09-08T11:05:12;79.50;;;73.57;;
5710;SDS011;61291;52.524;13.422;2023-09-08T11:07:40;79.27;;;73.87;;
5710;SDS011;61291;52.524;13.422;2023-09-08T11:10:06;77.82;;;72.63;;
5710;SDS011;61291;52.524;13.422;2023-09-08T11:12:33;81.37;;;75.43;;
5710;SDS011;61291;52.524;13.422;2023-09-08T11:14:59;81.90;;;75.70;;
5710;SDS011;61291;52.524;13.422;2023-09-08T11:17:29;80.30;;;73.93;;
5710;SDS011;61291;52.524;13.422;2023-09-08T11:19:55;80.43;;;75.13;;
5710;SDS011;61291;52.524;13.422;2023-09-08T11:22:25;83.07;;;77.28;;
5710;SDS011;61291;52.524;13.422;2023-09-08T11:24:55;84.93;;;79.13;;
5710;SDS011;61291;52.524;13.422;2023-09-08T11:27:22;85.63;;;79.73;;
5710;SDS011;61291;52.524;13.422;2023-09-08T11:29:48;79.03;;;73.93;;
5710;SDS011;61291;52.524;13.422;2023-09-08T11:32:14;78.40;;;72.90;;
5710;SDS011;61291;52.524;13.422;2023-09-08T11:34:40;86.57;;;81.07;;
5710;SDS011;61291;52.524;13.422;2023-09-08T11:37:10;77.22;;;71.82;;
5710;SDS011;61291;52.524;13.422;2023-09-08T11:39:38;90.23;;;83.93;;
5710;SDS011;61291;52.524;13.422;2023-09-08T11:42:04;89.10;;;83.40;;
5710;SDS011;61291;52.524;13.422;2023-09-08T11:44:31;81.53;;;76.03;;
5710;SDS011;61291;52.524;13.422;2023-09-08T11:46:57;86.63;;;80.83;;
5710;SDS011;61291;52.524;13.422;2023-09-08T11:49:24;79.83;;;74.37;;
5710;SDS011;61291;52.524;13.422;2023-09-08T11:51:50;84.93;;;78.97;;
5710;SDS011;61291;52.524;13.422;2023-09-08T11:54:15;83.90;;;77.97;;
5710;SDS011;61291;52.524;13.422;2023-09-08T11:56:42;84.17;;;77.97;;
5710;SDS011;61291;52.524;13.422;2023-09-08T11:59:08;88.07;;;81.50;;
5710;SDS011;61291;52.524;13.422;2023-09-08T12:01:34;84.67;;;78.97;;
5710;SDS011;61291;52.524;13.422;2023-09-08T12:04:00;81.75;;;75.43;;
5710;SDS011;61291;52.524;13.422;2023-09-08T12:06:26;79.37;;;73.47;;
5710;SDS011;61291;52.524;13.422;2023-09-08T12:08:53;78.03;;;72.73;;
5710;SDS011;61291;52.524;13.422;2023-09-08T12:11:19;76.00;;;70.07;;
5710;SDS011;61291;52.524;13.422;2023-09-08T12:13:45;74.90;;;69.40;;
5710;SDS011;61291;52.524;13.422;2023-09-08T12:16:17;60.77;;;56.23;;
5710;SDS011;61291;52.524;13.422;2023-09-08T12:18:44;68.97;;;64.00;;
5710;SDS011;61291;52.524;13.422;2023-09-08T12:21:10;74.33;;;69.33;;
5710;SDS011;61291;52.524;13.422;2023-09-08T12:23:46;77.07;;;71.93;;
5710;SDS011;61291;52.524;13.422;2023-09-08T12:26:13;76.03;;;71.07;;
5710;SDS011;61291;52.524;13.422;2023-09-08T12:28:38;79.33;;;73.97;;
5710;SDS011;61291;52.524;13.422;2023-09-08T12:31:04;76.10;;;70.90;;
5710;SDS011;61291;52.524;13.422;2023-09-08T12:33:30;78.97;;;73.57;;
5710;SDS011;61291;52.524;13.422;2023-09-08T12:35:55;76.10;;;70.90;;
5710;SDS011;61291;52.524;13.422;2023-09-08T12:38:21;76.37;;;70.40;;
5710;SDS011;61291;52.524;13.422;2023-09-08T12:40:48;79.10;;;73.00;;
5710;SDS011;61291;52.524;13.422;2023-09-08T12:43:13;77.13;;;71.47;;
5710;SDS011;61291;52.524;13.422;2023-09-08T12:45:39;75.87;;;70.77;;
5710;SDS011;61291;52.524;13.422;2023-09-08T12:48:05;74.07;;;68.97;;
5710;SDS011;61291;52.524;13.422;2023-09-08T12:50:32;70.93;;;65.97;;
5710;SDS011;61291;52.524;13.422;2023-09-08T12:52:57;73.97;;;68.73;;
5710;SDS011;61291;52.524;13.422;2023-09-08T12:55:23;77.37;;;71.67;;
5710;SDS011;61291;52.524;13.422;2023-09-08T12:57:49;71.67;;;66.67;;
5710;SDS011;61291;52.524;13.422;2023-09-08T13:00:19;72.73;;;67.60;;
5710;SDS011;61291;52.524;13.422;2023-09-08T13:02:45;62.65;;;58.25;;
5710;SDS011;61291;52.524;13.422;2023-09-08T13:05:10;70.30;;;65.20;;
5710;SDS011;61291;52.524;13.422;2023-09-08T13:07:36;74.30;;;66.77;;
5710;SDS011;61291;52.524;13.422;2023-09-08T13:10:01;83.77;;;77.70;;
5710;SDS011;61291;52.524;13.422;2023-09-08T13:12:27;74.40;;;69.30;;
5710;SDS011;61291;52.524;13.422;2023-09-08T13:14:52;75.73;;;70.00;;
5710;SDS011;61291;52.524;13.422;2023-09-08T13:17:18;79.07;;;73.57;;
5710;SDS011;61291;52.524;13.422;2023-09-08T13:19:44;80.47;;;74.77;;
5710;SDS011;61291;52.524;13.422;2023-09-08T13:22:09;78.60;;;72.70;;
5710;SDS011;61291;52.524;13.422;2023-09-08T13:24:35;81.18;;;75.47;;
5710;SDS011;61291;52.524;13.422;2023-09-08T13:27:01;81.57;;;76.17;;
5710;SDS011;61291;52.524;13.422;2023-09-08T13:29:27;78.10;;;72.93;;
5710;SDS011;61291;52.524;13.422;2023-09-08T13:31:53;72.20;;;67.37;;
5710;SDS011;61291;52.524;13.422;2023-09-08T13:34:19;72.50;;;67.50;;
5710;SDS011;61291;52.524;13.422;2023-09-08T13:36:46;81.20;;;75.30;;
5710;SDS011;61291;52.524;13.422;2023-09-08T13:39:11;78.27;;;73.07;;
5710;SDS011;61291;52.524;13.422;2023-09-08T13:41:53;81.50;;;76.07;;
5710;SDS011;61291;52.524;13.422;2023-09-08T13:44:20;83.63;;;78.03;;
5710;SDS011;61291;52.524;13.422;2023-09-08T13:46:47;79.17;;;73.77;;
5710;SDS011;61291;52.524;13.422;2023-09-08T13:49:14;79.17;;;73.57;;
5710;SDS011;61291;52.524;13.422;2023-09-08T13:51:40;77.47;;;72.13;;
5710;SDS011;61291;52.524;13.422;2023-09-08T13:54:06;76.33;;;70.83;;
5710;SDS011;61291;52.524;13.422;2023-09-08T13:56:32;76.40;;;70.87;;
5710;SDS011;61291;52.524;13.422;2023-09-08T13:58:58;72.67;;;67.87;;
5710;SDS011;61291;52.524;13.422;2023-09-08T14:01:24;77.97;;;72.67;;
5710;SDS011;61291;52.524;13.422;2023-09-08T14:03:52;83.23;;;77.43;;
5710;SDS011;61291;52.524;13.422;2023-09-08T14:06:18;67.63;;;62.92;;
5710;SDS011;61291;52.524;13.422;2023-09-08T14:08:44;77.17;;;71.47;;
5710;SDS011;61291;52.524;13.422;2023-09-08T14:11:09;76.50;;;71.30;;
5710;SDS011;61291;52.524;13.422;2023-09-08T14:13:35;76.55;;;71.55;;
5710;SDS011;61291;52.524;13.422;2023-09-08T14:16:00;80.13;;;74.73;;
5710;SDS011;61291;52.524;13.422;2023-09-08T14:18:26;74.47;;;69.20;;
5710;SDS011;61291;52.524;13.422;2023-09-08T14:20:51;78.63;;;73.33;;
5710;SDS011;61291;52.524;13.422;2023-09-08T14:23:17;76.93;;;71.83;;
5710;SDS011;61291;52.524;13.422;2023-09-08T14:25:42;73.17;;;68.27;;